Time;durP1;ratioP1;P1;durP2;ratioP2;P2;SDS_P1;SDS_P2;PMS_P1;PMS_P2;Temp;Humidity;BMP_temperature;BMP_pressure;BME280_temperature;BME280_humidity;BME280_pressure;Samples;Min_cycle;Max_cycle;Signal;HPM_P1;HPM_P2
2023/05/26 00:00:41;;;;;;;25.10;12.70;;;;;;;20.86;48.29;103113.81;5004048;28;20058;-33
2023/05/26 00:03:08;;;;;;;25.02;12.80;;;;;;;20.84;48.46;103119.34;5002853;28;20062;-33
2023/05/26 00:05:39;;;;;;;27.80;13.18;;;;;;;20.83;48.68;103122.16;5002130;28;20050;-33
2023/05/26 00:08:09;;;;;;;25.50;12.90;;;;;;;20.83;48.23;103128.41;4997165;28;20042;-33
2023/05/26 00:10:36;;;;;;;25.10;13.15;;;;;;;20.82;48.40;103128.50;5002817;28;20057;-34
2023/05/26 00:13:03;;;;;;;21.55;11.95;;;;;;;20.81;48.48;103122.28;4998523;28;20147;-33
2023/05/26 00:15:29;;;;;;;23.50;12.05;;;;;;;20.81;48.92;103124.09;4995470;28;20058;-33
2023/05/26 00:18:01;;;;;;;24.25;11.80;;;;;;;20.80;48.58;103122.41;4997628;28;20045;-33
2023/05/26 00:20:28;;;;;;;23.52;12.55;;;;;;;20.79;48.68;103120.69;4999237;28;20050;-34
2023/05/26 00:22:55;;;;;;;22.38;11.95;;;;;;;20.78;49.06;103121.63;4996012;28;20054;-33
2023/05/26 00:25:22;;;;;;;23.98;11.55;;;;;;;20.77;48.65;103125.31;5001846;28;20565;-33
2023/05/26 00:27:49;;;;;;;22.40;10.98;;;;;;;20.75;48.70;103130.84;4997759;28;20061;-33
2023/05/26 00:30:16;;;;;;;24.55;11.75;;;;;;;20.76;48.98;103121.75;4998496;28;20050;-33
2023/05/26 00:32:43;;;;;;;20.63;10.38;;;;;;;20.76;48.77;103131.69;4997319;28;20153;-33
2023/05/26 00:35:10;;;;;;;22.48;11.65;;;;;;;20.75;48.73;103132.69;4993215;28;20092;-33
2023/05/26 00:37:36;;;;;;;23.38;10.85;;;;;;;20.74;49.01;103129.09;4994867;28;20397;-33
2023/05/26 00:40:03;;;;;;;19.88;10.15;;;;;;;20.73;48.91;103131.91;4995718;28;20461;-32
2023/05/26 00:42:30;;;;;;;21.23;10.40;;;;;;;20.72;49.11;103136.44;4999131;28;20069;-33
2023/05/26 00:44:56;;;;;;;21.13;10.30;;;;;;;20.72;49.01;103135.59;5000060;28;20057;-33
2023/05/26 00:47:23;;;;;;;22.33;10.40;;;;;;;20.70;48.86;103130.31;4999301;28;20046;-34
2023/05/26 00:49:50;;;;;;;21.50;9.93;;;;;;;20.68;48.56;103141.22;4998524;28;20634;-33
2023/05/26 00:52:17;;;;;;;18.90;9.90;;;;;;;20.68;49.02;103133.13;5001698;28;20096;-33
2023/05/26 00:54:44;;;;;;;21.48;10.30;;;;;;;20.67;49.25;103134.09;4997220;28;21812;-33
2023/05/26 00:57:11;;;;;;;15.82;9.27;;;;;;;20.65;48.71;103130.66;4996471;28;20057;-32
2023/05/26 00:59:38;;;;;;;17.73;8.85;;;;;;;20.66;49.18;103139.59;4998182;28;20045;-33
2023/05/26 01:02:05;;;;;;;19.38;8.98;;;;;;;20.64;48.61;103134.31;4997738;28;20045;-33
2023/05/26 01:04:31;;;;;;;16.90;8.63;;;;;;;20.63;49.10;103132.63;4998201;28;20046;-33
2023/05/26 01:07:00;;;;;;;18.73;8.90;;;;;;;20.62;49.24;103133.59;4995450;28;20149;-33
2023/05/26 01:09:26;;;;;;;17.00;9.10;;;;;;;20.62;48.82;103122.81;4999341;28;20057;-33
2023/05/26 01:11:59;;;;;;;15.13;8.35;;;;;;;20.62;48.98;103138.09;4995832;28;20074;-34
2023/05/26 01:14:31;;;;;;;16.88;8.45;;;;;;;20.61;48.83;103133.69;4996226;28;20060;-32
2023/05/26 01:17:17;;;;;;;18.08;7.75;;;;;;;20.59;49.25;103136.50;4997363;28;20410;-33
2023/05/26 01:20:03;;;;;;;16.27;8.40;;;;;;;20.59;49.33;103130.28;5000132;28;20053;-33
2023/05/26 01:22:51;;;;;;;19.67;8.90;;;;;;;20.57;49.16;103135.75;5001662;28;20061;-34
2023/05/26 01:25:20;;;;;;;17.02;8.32;;;;;;;20.58;49.56;103145.59;5001202;28;20050;-33
2023/05/26 01:27:46;;;;;;;16.00;8.38;;;;;;;20.57;49.47;103143.84;5002014;28;20136;-32
2023/05/26 01:30:15;;;;;;;16.35;8.00;;;;;;;20.56;49.31;103138.56;5014982;28;20108;-32
2023/05/26 01:32:48;;;;;;;16.33;7.38;;;;;;;20.55;48.97;103142.25;5012968;28;20056;-33
2023/05/26 01:35:15;;;;;;;17.00;7.55;;;;;;;20.54;49.18;103140.50;5011370;28;20054;-33
2023/05/26 01:37:43;;;;;;;15.20;7.22;;;;;;;20.54;49.37;103137.81;5010839;28;20077;-33
2023/05/26 01:40:11;;;;;;;15.50;7.50;;;;;;;20.53;49.65;103138.78;5001598;28;20474;-32
2023/05/26 01:42:42;;;;;;;18.05;7.50;;;;;;;20.51;49.45;103138.06;5008945;28;20099;-33
2023/05/26 01:45:09;;;;;;;15.15;7.60;;;;;;;20.52;49.56;103150.56;5010835;28;20135;-33
2023/05/26 01:47:39;;;;;;;16.80;7.57;;;;;;;20.51;49.54;103148.84;5010407;28;20477;-33
2023/05/26 01:50:08;;;;;;;13.27;6.90;;;;;;;20.51;49.63;103151.53;4995114;28;20376;-33
2023/05/26 01:52:40;;;;;;;14.93;7.30;;;;;;;20.49;49.78;103146.25;5003035;28;20053;-33
2023/05/26 01:55:07;;;;;;;12.85;6.45;;;;;;;20.50;49.12;103153.34;5000231;28;20124;-33
2023/05/26 01:57:36;;;;;;;16.08;6.88;;;;;;;20.49;49.48;103151.63;4993968;28;20141;-32
2023/05/26 02:00:03;;;;;;;14.90;6.05;;;;;;;20.48;49.04;103155.28;4995114;28;20081;-32
2023/05/26 02:02:30;;;;;;;12.98;6.40;;;;;;;20.48;49.03;103154.41;4995234;28;20172;-33
2023/05/26 02:04:57;;;;;;;14.18;6.50;;;;;;;20.46;49.41;103162.59;4995541;28;20045;-36
2023/05/26 02:07:23;;;;;;;15.50;6.70;;;;;;;20.46;49.49;103158.09;4994929;28;20092;-32
2023/05/26 02:09:50;;;;;;;14.57;6.35;;;;;;;20.45;49.23;103160.88;5003199;28;20057;-33
2023/05/26 02:12:17;;;;;;;12.82;6.13;;;;;;;20.44;49.33;103165.41;4995617;28;20062;-33
2023/05/26 02:14:43;;;;;;;12.38;5.90;;;;;;;20.44;49.13;103167.25;4998952;28;20077;-33
2023/05/26 02:17:10;;;;;;;11.40;5.22;;;;;;;20.43;49.35;103163.69;4999437;28;20326;-33
2023/05/26 02:19:37;;;;;;;16.33;6.07;;;;;;;20.43;49.60;103171.78;5000556;28;20088;-33
2023/05/26 02:22:04;;;;;;;12.95;5.40;;;;;;;20.42;49.50;103170.06;4999393;28;20112;-33
2023/05/26 02:24:31;;;;;;;11.13;5.68;;;;;;;20.43;49.30;103176.31;5005790;28;20058;-33
2023/05/26 02:26:57;;;;;;;14.98;5.75;;;;;;;20.41;49.14;103170.16;4998032;28;20394;-33
2023/05/26 02:29:24;;;;;;;14.38;5.95;;;;;;;20.40;49.08;103177.38;5001182;28;20129;-33
2023/05/26 02:31:50;;;;;;;10.55;5.05;;;;;;;20.39;49.19;103178.38;5001514;28;20054;-33
2023/05/26 02:34:17;;;;;;;12.57;5.60;;;;;;;20.39;49.53;103182.91;4995426;28;20046;-33
2023/05/26 02:36:44;;;;;;;11.13;5.20;;;;;;;20.38;49.11;103179.34;4995872;28;20054;-33
2023/05/26 02:39:10;;;;;;;13.18;6.43;;;;;;;20.37;49.46;103177.59;4996089;28;20060;-33
2023/05/26 02:41:37;;;;;;;10.93;5.45;;;;;;;20.36;49.18;103173.19;4994187;28;20335;-32
2023/05/26 02:44:04;;;;;;;11.77;5.50;;;;;;;20.36;49.02;103180.41;5011014;28;20057;-33
2023/05/26 02:46:30;;;;;;;10.38;4.90;;;;;;;20.35;49.71;103178.72;5000605;28;20042;-37
2023/05/26 02:48:57;;;;;;;11.57;5.05;;;;;;;20.34;49.25;103174.28;4997116;28;20054;-33
2023/05/26 02:51:24;;;;;;;11.30;5.15;;;;;;;20.34;49.13;103177.84;5000777;28;20101;-34
2023/05/26 02:53:50;;;;;;;14.20;5.82;;;;;;;20.33;49.73;103176.09;5000903;28;20426;-33
2023/05/26 02:56:17;;;;;;;14.40;5.07;;;;;;;20.33;49.73;103170.72;4998217;28;20121;-33
2023/05/26 02:58:43;;;;;;;14.10;4.97;;;;;;;20.32;49.86;103173.53;4996511;28;20057;-33
2023/05/26 03:01:10;;;;;;;12.95;4.97;;;;;;;20.32;49.12;103182.47;5003423;28;20061;-32
2023/05/26 03:03:37;;;;;;;10.35;4.38;;;;;;;20.31;49.52;103179.91;4999487;28;20050;-33
2023/05/26 03:06:04;;;;;;;13.15;5.30;;;;;;;20.30;49.68;103181.75;4998284;28;20047;-34
2023/05/26 03:08:31;;;;;;;12.32;5.07;;;;;;;20.30;49.13;103184.44;4999160;28;20054;-33
2023/05/26 03:10:58;;;;;;;11.48;4.95;;;;;;;20.30;49.67;103178.16;5000090;28;20077;-33
2023/05/26 03:13:37;;;;;;;10.10;4.30;;;;;;;20.29;49.34;103173.75;4997352;28;20379;-32
2023/05/26 03:16:05;;;;;;;12.07;4.85;;;;;;;20.27;49.73;103179.25;4999027;28;20081;-32
2023/05/26 03:18:32;;;;;;;9.32;4.18;;;;;;;20.28;49.71;103180.13;5005209;28;20112;-34
2023/05/26 03:20:59;;;;;;;10.25;4.47;;;;;;;20.27;49.44;103173.88;5001557;28;20046;-33
2023/05/26 03:23:25;;;;;;;10.07;4.18;;;;;;;20.26;49.92;103174.84;4997776;28;20050;-33
2023/05/26 03:25:52;;;;;;;9.85;4.18;;;;;;;20.26;49.47;103182.06;4997827;28;20081;-33
2023/05/26 03:28:18;;;;;;;9.90;3.95;;;;;;;20.25;49.12;103178.50;5009331;28;20049;-33
2023/05/26 03:30:45;;;;;;;9.15;3.67;;;;;;;20.24;49.31;103176.78;5013589;28;20058;-33
2023/05/26 03:33:11;;;;;;;10.75;4.85;;;;;;;20.24;49.74;103181.31;5012358;28;20507;-32
2023/05/26 03:35:38;;;;;;;9.48;4.15;;;;;;;20.23;49.36;103182.28;5013363;28;20133;-33
2023/05/26 03:38:05;;;;;;;7.68;4.15;;;;;;;20.22;49.95;103176.03;5012024;28;20113;-32
2023/05/26 03:40:31;;;;;;;11.18;4.10;;;;;;;20.20;49.66;103180.69;5012264;28;20133;-32
2023/05/26 03:42:58;;;;;;;9.68;4.75;;;;;;;20.20;49.27;103178.84;5015627;28;20087;-32
2023/05/26 03:45:24;;;;;;;9.68;3.67;;;;;;;20.19;49.74;103187.91;5015031;28;20046;-32
2023/05/26 03:47:51;;;;;;;9.63;4.30;;;;;;;20.18;49.15;103191.56;5013862;28;20050;-32
2023/05/26 03:50:18;;;;;;;9.68;3.65;;;;;;;20.18;49.58;103185.28;4996577;28;20042;-31
2023/05/26 03:52:45;;;;;;;9.05;3.80;;;;;;;20.17;49.33;103189.81;4997165;28;20080;-31
2023/05/26 03:55:12;;;;;;;10.05;4.35;;;;;;;20.17;49.25;103192.53;4994436;28;20499;-32
2023/05/26 03:57:39;;;;;;;9.57;3.45;;;;;;;20.17;49.43;103184.44;4998077;28;20116;-32
2023/05/26 04:00:07;;;;;;;7.57;3.47;;;;;;;20.17;49.56;103192.53;4998875;28;20053;-31
2023/05/26 04:02:34;;;;;;;15.20;5.05;;;;;;;20.17;49.89;103194.34;4993672;28;20341;-32
2023/05/26 04:05:01;;;;;;;11.95;4.32;;;;;;;20.16;49.82;103195.34;4995599;28;20050;-32
2023/05/26 04:07:27;;;;;;;11.70;4.20;;;;;;;20.16;49.91;103189.94;4997242;28;20412;-32
2023/05/26 04:09:54;;;;;;;13.48;4.60;;;;;;;20.16;49.81;103193.50;4996252;28;20132;-37
2023/05/26 04:12:22;;;;;;;12.85;4.20;;;;;;;20.15;49.27;103194.47;4998078;28;20116;-32
2023/05/26 04:14:49;;;;;;;14.40;4.65;;;;;;;20.15;49.07;103196.31;4994170;28;20161;-32
2023/05/26 04:17:15;;;;;;;11.07;4.18;;;;;;;20.15;49.19;103190.94;4992547;28;20331;-33
2023/05/26 04:19:42;;;;;;;10.48;4.13;;;;;;;20.15;49.14;103188.22;4993706;28;20137;-32
2023/05/26 04:22:09;;;;;;;14.88;4.50;;;;;;;20.15;49.23;103197.16;4997404;28;20049;-32
2023/05/26 04:24:36;;;;;;;13.25;4.35;;;;;;;20.15;49.41;103191.78;4996130;28;20077;-33
2023/05/26 04:27:02;;;;;;;12.57;4.45;;;;;;;20.15;49.16;103194.47;4997272;28;20073;-32
2023/05/26 04:29:29;;;;;;;11.60;4.70;;;;;;;20.16;49.77;103193.50;4993760;28;20050;-32
2023/05/26 04:31:56;;;;;;;15.85;5.07;;;;;;;20.16;49.47;103204.25;4994523;28;20112;-33
2023/05/26 04:34:23;;;;;;;15.55;5.00;;;;;;;20.17;49.20;103202.44;4995888;28;20418;-33
2023/05/26 04:36:50;;;;;;;13.90;4.70;;;;;;;20.17;49.22;103210.50;4998071;28;20046;-33
2023/05/26 04:39:17;;;;;;;17.80;5.70;;;;;;;20.16;49.50;103201.56;4995836;28;20333;-32
2023/05/26 04:41:44;;;;;;;14.18;4.88;;;;;;;20.18;49.58;103204.16;4993675;28;20054;-33
2023/05/26 04:44:11;;;;;;;13.13;5.35;;;;;;;20.18;49.03;103210.41;4995891;28;20057;-32
2023/05/26 04:46:39;;;;;;;12.70;5.30;;;;;;;20.19;49.21;103214.81;4996211;28;20671;-33
2023/05/26 04:49:07;;;;;;;17.17;5.95;;;;;;;20.20;49.27;103213.84;4994916;28;20050;-32
2023/05/26 04:51:35;;;;;;;14.70;5.63;;;;;;;20.21;49.69;103215.56;5029976;28;20124;-31
2023/05/26 04:54:01;;;;;;;13.75;6.20;;;;;;;20.24;49.47;103219.88;4994186;28;20549;-34
2023/05/26 04:56:28;;;;;;;13.98;6.50;;;;;;;20.25;48.80;103218.91;4996941;28;20084;-34
2023/05/26 04:58:56;;;;;;;16.95;7.10;;;;;;;20.28;49.12;103240.22;4995846;28;20038;-34
2023/05/26 05:01:22;;;;;;;16.73;6.47;;;;;;;20.30;49.06;103234.72;4999150;28;20140;-34
2023/05/26 05:03:49;;;;;;;15.50;7.43;;;;;;;20.30;49.29;103249.06;4994343;28;20146;-33
2023/05/26 05:06:16;;;;;;;18.65;6.68;;;;;;;20.33;48.71;103245.28;4994031;28;20132;-33
2023/05/26 05:08:43;;;;;;;11.15;5.60;;;;;;;20.34;48.94;103244.31;4995085;28;20381;-33
2023/05/26 05:11:11;;;;;;;19.05;7.22;;;;;;;20.36;49.05;103243.22;4997513;28;20520;-34
2023/05/26 05:13:38;;;;;;;15.45;6.70;;;;;;;20.39;48.60;103247.53;4995961;28;20058;-34
2023/05/26 05:16:05;;;;;;;14.70;6.82;;;;;;;20.39;49.06;103245.72;4995536;28;20068;-34
2023/05/26 05:18:31;;;;;;;14.15;6.32;;;;;;;20.42;48.82;103250.00;5001959;28;20226;-34
2023/05/26 05:20:58;;;;;;;17.80;7.65;;;;;;;20.43;49.02;103243.66;4993551;28;21183;-34
2023/05/26 05:23:25;;;;;;;13.82;6.15;;;;;;;20.45;48.97;103253.34;4993079;28;20081;-34
2023/05/26 05:25:52;;;;;;;14.60;7.03;;;;;;;20.48;48.62;103251.41;4992575;28;20557;-34
2023/05/26 05:28:19;;;;;;;16.27;7.00;;;;;;;20.50;48.30;103254.88;4995429;28;20081;-34
2023/05/26 05:30:45;;;;;;;18.40;7.70;;;;;;;20.51;48.81;103254.78;5001833;28;20081;-34
2023/05/26 05:33:12;;;;;;;18.98;7.38;;;;;;;20.53;48.99;103252.81;5009408;28;20468;-34
2023/05/26 05:35:39;;;;;;;15.27;7.45;;;;;;;20.55;48.07;103260.81;5004314;28;20353;-33
2023/05/26 05:38:06;;;;;;;14.73;6.80;;;;;;;20.56;48.21;103260.69;5002911;28;20548;-34
2023/05/26 05:40:33;;;;;;;17.10;7.32;;;;;;;20.58;48.15;103253.34;5030405;28;20217;-34
2023/05/26 05:43:00;;;;;;;17.67;7.57;;;;;;;20.60;48.41;103253.25;4996016;28;20116;-34
2023/05/26 05:45:27;;;;;;;18.42;7.85;;;;;;;20.61;48.31;103261.19;5002832;28;20053;-34
2023/05/26 05:47:54;;;;;;;18.45;7.75;;;;;;;20.62;48.54;103254.84;5002697;28;20869;-33
2023/05/26 05:50:21;;;;;;;17.48;7.82;;;;;;;20.63;48.23;103253.88;4993926;28;20046;-33
2023/05/26 05:52:47;;;;;;;18.08;7.93;;;;;;;20.65;48.43;103265.38;5024185;28;20116;-34
2023/05/26 05:55:14;;;;;;;16.10;8.27;;;;;;;20.66;48.06;103268.94;4998184;28;20430;-34
2023/05/26 05:57:41;;;;;;;18.88;7.57;;;;;;;20.68;47.80;103272.41;4994094;28;20061;-34
2023/05/26 06:00:09;;;;;;;18.63;7.80;;;;;;;20.68;47.49;103264.31;5000434;28;20046;-34
2023/05/26 06:02:36;;;;;;;17.55;8.02;;;;;;;20.68;47.53;103269.72;5002542;28;20053;-34
2023/05/26 06:05:04;;;;;;;18.17;7.75;;;;;;;20.69;48.07;103266.88;5001404;28;20614;-34
2023/05/26 06:07:30;;;;;;;18.05;7.32;;;;;;;20.69;47.83;103266.88;5000793;28;20042;-34
2023/05/26 06:09:57;;;;;;;18.08;7.38;;;;;;;20.68;47.92;103267.88;5001958;28;20078;-33
2023/05/26 06:12:24;;;;;;;14.90;7.13;;;;;;;20.68;47.44;103267.88;4999841;28;21765;-34
2023/05/26 06:14:50;;;;;;;16.45;7.30;;;;;;;20.68;47.27;103269.72;4998782;28;20077;-34
2023/05/26 06:17:17;;;;;;;19.17;7.70;;;;;;;20.69;47.79;103274.97;5005169;28;20132;-34
2023/05/26 06:19:44;;;;;;;19.83;7.85;;;;;;;20.69;47.89;103266.03;5005187;28;20129;-34
2023/05/26 06:22:10;;;;;;;21.35;8.02;;;;;;;20.70;47.48;103273.13;5005020;28;20516;-34
2023/05/26 06:24:37;;;;;;;17.63;7.70;;;;;;;20.69;47.86;103277.66;5007436;28;20133;-34
2023/05/26 06:27:04;;;;;;;17.25;7.65;;;;;;;20.69;47.91;103268.72;5005599;28;20132;-35
2023/05/26 06:29:30;;;;;;;20.77;7.35;;;;;;;20.68;47.61;103278.66;5004653;28;20108;-34
2023/05/26 06:31:57;;;;;;;16.85;7.38;;;;;;;20.68;47.37;103284.03;5002650;28;20731;-34
2023/05/26 06:34:24;;;;;;;19.95;7.22;;;;;;;20.70;47.39;103279.41;5011288;28;20108;-34
2023/05/26 06:36:51;;;;;;;14.82;7.22;;;;;;;20.70;47.57;103276.72;5010541;28;20054;-34
2023/05/26 06:39:17;;;;;;;13.73;7.00;;;;;;;20.70;47.65;103283.91;5004836;28;20135;-33
2023/05/26 06:41:44;;;;;;;16.92;6.90;;;;;;;20.69;47.14;103293.84;5009356;28;20054;-33
2023/05/26 06:44:11;;;;;;;14.38;6.53;;;;;;;20.69;47.47;103290.28;5006662;28;20066;-34
2023/05/26 06:46:37;;;;;;;16.45;7.38;;;;;;;20.70;47.33;103292.00;5006704;28;20046;-34
2023/05/26 06:49:04;;;;;;;18.23;6.93;;;;;;;20.68;47.00;103286.72;5015825;28;20341;-33
2023/05/26 06:51:31;;;;;;;18.00;7.68;;;;;;;20.69;46.85;103285.75;5008021;28;20085;-34
2023/05/26 06:53:57;;;;;;;14.90;6.32;;;;;;;20.69;46.84;103293.84;5003693;28;20104;-33
2023/05/26 06:56:26;;;;;;;14.93;6.30;;;;;;;20.68;47.29;103284.03;5005335;28;20290;-34
2023/05/26 06:58:53;;;;;;;15.23;6.57;;;;;;;20.68;46.93;103278.66;5010185;28;20388;-34
2023/05/26 07:01:19;;;;;;;15.82;6.28;;;;;;;20.68;47.38;103292.13;5010696;28;20054;-35
2023/05/26 07:03:46;;;;;;;18.25;7.13;;;;;;;20.68;47.08;103293.97;5005252;28;20366;-34
2023/05/26 07:06:12;;;;;;;13.55;6.35;;;;;;;20.67;46.91;103295.81;5002070;28;20076;-34
2023/05/26 07:08:39;;;;;;;13.48;6.22;;;;;;;20.67;46.92;103306.56;5006557;28;20054;-33
2023/05/26 07:11:06;;;;;;;14.25;6.60;;;;;;;20.66;46.97;103302.16;5000943;28;20116;-33
2023/05/26 07:13:33;;;;;;;14.40;6.25;;;;;;;20.65;47.03;103297.72;5010061;28;20056;-33
2023/05/26 07:16:00;;;;;;;13.15;5.90;;;;;;;20.65;47.25;103294.19;5007003;28;20116;-34
2023/05/26 07:18:26;;;;;;;14.43;6.40;;;;;;;20.64;47.07;103306.78;5007163;28;20465;-34
2023/05/26 07:20:53;;;;;;;14.32;6.47;;;;;;;20.65;46.87;103307.66;5004167;28;20050;-33
2023/05/26 07:23:20;;;;;;;16.80;6.55;;;;;;;20.64;47.14;103295.16;5007571;28;20053;-33
2023/05/26 07:25:47;;;;;;;12.82;6.00;;;;;;;20.65;47.18;103291.47;5005180;28;20143;-33
2023/05/26 07:28:13;;;;;;;15.43;6.32;;;;;;;20.65;47.28;103295.03;5006095;28;20045;-33
2023/05/26 07:30:40;;;;;;;14.50;5.82;;;;;;;20.66;46.93;103304.88;5003024;28;20125;-33
2023/05/26 07:33:07;;;;;;;15.15;6.03;;;;;;;20.67;47.21;103300.34;5002880;28;20136;-33
2023/05/26 07:35:33;;;;;;;17.13;6.40;;;;;;;20.67;47.03;103295.81;5001743;28;20050;-34
2023/05/26 07:38:02;;;;;;;15.73;6.03;;;;;;;20.69;46.79;103293.84;5030164;28;20138;-33
2023/05/26 07:40:34;;;;;;;13.65;5.88;;;;;;;20.70;46.86;103290.19;5001608;28;20050;-35
2023/05/26 07:43:02;;;;;;;16.33;6.25;;;;;;;20.72;47.06;103283.81;5001432;28;20133;-31
2023/05/26 07:45:29;;;;;;;15.73;6.13;;;;;;;20.73;47.20;103282.84;5000208;28;20046;-31
2023/05/26 07:47:55;;;;;;;11.55;5.53;;;;;;;20.73;46.60;103278.31;5000414;28;20461;-32
2023/05/26 07:50:22;;;;;;;15.02;6.15;;;;;;;20.73;46.92;103274.75;4998503;28;20046;-33
2023/05/26 07:52:49;;;;;;;14.27;5.95;;;;;;;20.74;46.62;103281.84;5001733;28;20403;-33
2023/05/26 07:55:15;;;;;;;12.60;5.53;;;;;;;20.73;46.44;103283.69;5031335;28;20059;-31
2023/05/26 07:57:42;;;;;;;12.52;5.68;;;;;;;20.74;46.91;103271.94;5003279;28;20053;-32
2023/05/26 08:00:09;;;;;;;15.15;5.85;;;;;;;20.74;46.55;103279.16;5002952;28;20133;-32
2023/05/26 08:02:39;;;;;;;10.95;4.75;;;;;;;20.76;46.93;103277.22;5001744;28;20049;-32
2023/05/26 08:05:06;;;;;;;12.60;5.70;;;;;;;20.74;46.62;103274.63;5003665;28;20054;-32
2023/05/26 08:07:34;;;;;;;11.85;5.70;;;;;;;20.75;46.96;103275.53;5004836;28;20112;-32
2023/05/26 08:10:00;;;;;;;13.77;5.35;;;;;;;20.76;46.86;103275.41;5000212;28;20367;-32
2023/05/26 08:12:27;;;;;;;12.50;5.32;;;;;;;20.77;46.72;103284.34;5000680;28;20433;-32
2023/05/26 08:14:54;;;;;;;12.63;5.57;;;;;;;20.77;46.74;103270.84;5001973;28;20136;-32
2023/05/26 08:17:21;;;;;;;14.13;5.53;;;;;;;20.76;46.69;103270.00;5004477;28;20054;-33
2023/05/26 08:19:48;;;;;;;12.40;5.28;;;;;;;20.76;46.63;103275.41;5001720;28;20343;-32
2023/05/26 08:22:15;;;;;;;12.75;5.80;;;;;;;20.76;46.79;103275.41;5000917;28;20337;-32
2023/05/26 08:24:41;;;;;;;10.13;4.53;;;;;;;20.76;46.66;103271.84;5005700;28;20103;-32
2023/05/26 08:27:08;;;;;;;15.38;4.95;;;;;;;20.78;46.32;103267.19;5006648;28;20050;-33
2023/05/26 08:29:35;;;;;;;15.40;5.68;;;;;;;20.78;46.71;103265.34;5008243;28;20322;-32
2023/05/26 08:32:01;;;;;;;12.15;5.30;;;;;;;20.78;46.32;103268.03;4998874;28;20108;-36
2023/05/26 08:34:28;;;;;;;10.85;4.43;;;;;;;20.78;46.54;103269.88;5004156;28;20050;-32
2023/05/26 08:36:55;;;;;;;10.77;4.53;;;;;;;20.79;46.30;103277.00;5001462;28;20141;-33
2023/05/26 08:39:21;;;;;;;11.43;4.45;;;;;;;20.79;45.90;103272.47;5001224;28;20509;-33
2023/05/26 08:41:53;;;;;;;14.00;5.18;;;;;;;20.80;46.00;103273.34;4999484;28;20062;-32
2023/05/26 08:44:21;;;;;;;12.35;4.68;;;;;;;20.81;46.24;103272.34;5000795;28;20046;-33
2023/05/26 08:46:55;;;;;;;10.32;4.57;;;;;;;20.82;46.49;103274.06;4997145;28;20062;-32
2023/05/26 08:49:23;;;;;;;11.20;4.97;;;;;;;20.84;46.13;103277.53;5003451;28;20320;-32
2023/05/26 08:52:10;;;;;;;11.68;4.75;;;;;;;20.84;46.07;103274.84;4997468;28;20046;-32
2023/05/26 08:54:37;;;;;;;9.10;4.22;;;;;;;20.85;45.92;103272.00;5001342;28;20366;-33
2023/05/26 08:57:05;;;;;;;10.07;3.80;;;;;;;20.88;46.18;103273.63;4996765;28;20065;-32
2023/05/26 08:59:33;;;;;;;9.73;3.97;;;;;;;20.89;46.29;103278.91;4999330;28;20078;-32
2023/05/26 09:01:59;;;;;;;8.13;4.35;;;;;;;20.91;46.54;103270.72;4999843;28;20136;-32
2023/05/26 09:04:29;;;;;;;9.60;4.30;;;;;;;20.94;46.23;103284.84;5003138;28;20103;-32
2023/05/26 09:06:56;;;;;;;9.95;4.43;;;;;;;20.97;46.06;103277.47;4999609;28;20126;-33
2023/05/26 09:09:43;;;;;;;13.25;4.10;;;;;;;21.00;46.48;103286.19;4998386;28;20053;-32
2023/05/26 09:12:11;;;;;;;11.70;4.47;;;;;;;21.02;46.25;103273.44;4997710;28;20046;-33
2023/05/26 09:14:39;;;;;;;11.43;4.00;;;;;;;21.05;46.25;103273.22;5000876;28;20096;-33
2023/05/26 09:17:10;;;;;;;10.75;4.07;;;;;;;21.07;46.25;103282.09;4999244;28;20054;-32
2023/05/26 09:19:36;;;;;;;14.70;4.95;;;;;;;21.11;46.09;103263.84;5002296;28;20042;-33
2023/05/26 09:22:08;;;;;;;10.07;4.00;;;;;;;21.15;46.07;103270.72;4998769;28;20311;-33
2023/05/26 09:24:43;;;;;;;10.68;4.13;;;;;;;21.18;45.92;103267.78;5001182;28;20056;-33
2023/05/26 09:27:21;;;;;;;9.02;3.60;;;;;;;21.23;45.97;103268.31;4999335;28;20090;-34
2023/05/26 09:30:00;;;;;;;8.52;3.88;;;;;;;21.29;45.51;103266.97;4996694;28;20046;-33
2023/05/26 09:32:28;;;;;;;10.82;3.88;;;;;;;21.35;45.66;103275.50;4999003;28;20340;-33
2023/05/26 09:35:03;;;;;;;10.23;4.38;;;;;;;21.39;45.40;103270.75;5001360;28;20064;-34
2023/05/26 09:37:31;;;;;;;11.30;3.75;;;;;;;21.44;45.17;103271.25;5013389;28;20062;-34
2023/05/26 09:40:12;;;;;;;7.70;3.20;;;;;;;21.49;45.07;103268.19;5001406;28;20050;-33
2023/05/26 09:42:45;;;;;;;7.82;3.45;;;;;;;;;;5003692;28;20113;-34
2023/05/26 09:45:12;;;;;;;10.90;4.53;;;;;;;21.60;44.94;103270.94;5005737;28;20535;-34
2023/05/26 09:47:39;;;;;;;10.13;4.20;;;;;;;21.63;45.00;103252.66;5007166;28;20058;-34
2023/05/26 09:50:06;;;;;;;9.43;3.35;;;;;;;21.67;44.79;103262.25;5004357;28;20060;-33
2023/05/26 09:52:33;;;;;;;9.13;3.38;;;;;;;21.71;44.95;103260.16;5001206;28;20050;-34
2023/05/26 09:55:00;;;;;;;8.93;3.28;;;;;;;21.75;44.84;103258.06;4999596;28;20434;-33
2023/05/26 09:57:28;;;;;;;7.35;3.05;;;;;;;21.79;44.77;103259.53;4999708;28;20057;-33
2023/05/26 10:00:01;;;;;;;17.40;3.60;;;;;;;21.83;44.57;103252.91;5006034;28;20060;-33
2023/05/26 10:02:28;;;;;;;12.15;4.28;;;;;;;21.85;44.38;103257.22;5003315;28;20807;-33
2023/05/26 10:04:57;;;;;;;13.52;4.65;;;;;;;21.91;44.51;103261.31;4999732;28;20054;-33
2023/05/26 10:07:26;;;;;;;23.67;5.32;;;;;;;21.94;44.74;103256.50;5003433;28;20054;-33
2023/05/26 10:09:57;;;;;;;21.42;5.72;;;;;;;21.98;44.47;103261.66;5003274;28;20596;-34
2023/05/26 10:12:28;;;;;;;22.83;6.72;;;;;;;22.01;44.42;103269.53;5005822;28;20050;-33
2023/05/26 10:14:55;;;;;;;27.25;5.38;;;;;;;22.04;44.29;103266.59;5003853;28;20409;-33
2023/05/26 10:17:23;;;;;;;23.05;6.43;;;;;;;22.06;44.45;103257.38;4998921;28;20046;-33
2023/05/26 10:19:57;;;;;;;21.25;5.70;;;;;;;22.11;44.34;103251.59;4998877;28;20422;-34
2023/05/26 10:22:26;;;;;;;19.13;5.82;;;;;;;22.12;44.11;103254.19;4996777;28;20504;-34
2023/05/26 10:25:00;;;;;;;20.20;5.40;;;;;;;22.15;44.35;103247.72;4997682;28;20360;-33
2023/05/26 10:27:37;;;;;;;16.27;5.40;;;;;;;22.16;44.30;103244.91;4999899;28;20049;-34
2023/05/26 10:30:10;;;;;;;21.52;5.82;;;;;;;22.21;44.09;103251.78;4998820;28;20046;-34
2023/05/26 10:32:53;;;;;;;22.95;5.95;;;;;;;22.21;44.09;103249.94;4997611;28;20082;-33
2023/05/26 10:35:23;;;;;;;15.98;4.70;;;;;;;22.24;43.98;103241.59;5003366;28;20054;-33
2023/05/26 10:38:11;;;;;;;22.95;7.15;;;;;;;22.26;43.88;103236.06;5001069;28;20058;-33
2023/05/26 10:40:49;;;;;;;17.42;4.85;;;;;;;22.29;44.10;103246.63;5000644;28;20042;-33
2023/05/26 10:43:23;;;;;;;17.10;5.20;;;;;;;22.31;43.96;103233.81;4998715;28;20054;-34
2023/05/26 10:46:03;;;;;;;16.55;5.13;;;;;;;22.31;44.25;103229.31;4997273;28;20438;-33
2023/05/26 10:48:38;;;;;;;14.00;4.25;;;;;;;22.33;43.81;103239.97;4998643;28;20132;-33
2023/05/26 10:51:24;;;;;;;18.83;5.28;;;;;;;22.36;43.80;103243.31;5002507;28;20050;-33
2023/05/26 10:53:53;;;;;;;15.82;4.97;;;;;;;22.37;43.94;103230.66;4997943;28;20045;-33
2023/05/26 10:56:41;;;;;;;19.77;5.18;;;;;;;22.38;43.64;103233.22;5001208;28;20050;-33
2023/05/26 10:59:07;;;;;;;14.30;4.63;;;;;;;22.40;43.79;103228.56;5000475;28;20453;-34
2023/05/26 11:01:35;;;;;;;14.70;4.43;;;;;;;22.42;43.72;103236.53;4998172;28;20495;-34
2023/05/26 11:04:05;;;;;;;13.00;4.45;;;;;;;22.43;43.59;103230.13;5008059;28;20461;-34
2023/05/26 11:06:42;;;;;;;13.73;4.30;;;;;;;22.45;43.66;103230.88;5003923;28;20173;-34
2023/05/26 11:09:09;;;;;;;13.70;4.43;;;;;;;22.47;43.40;103225.34;5005427;28;20100;-34
2023/05/26 11:11:39;;;;;;;13.40;4.00;;;;;;;22.48;43.84;103217.13;5010319;28;20128;-34
2023/05/26 11:14:12;;;;;;;13.68;4.10;;;;;;;22.50;43.53;103223.25;5008710;28;20045;-34
2023/05/26 11:16:42;;;;;;;12.68;3.95;;;;;;;22.51;43.40;103216.84;5005059;28;20058;-33
2023/05/26 11:19:14;;;;;;;12.55;4.28;;;;;;;22.54;43.52;103218.47;4999801;28;20125;-33
2023/05/26 11:21:40;;;;;;;10.43;3.55;;;;;;;22.55;43.49;103218.34;5001723;28;20589;-34